sensor_id;sensor_type;location;lat;lon;timestamp;pressure;altitude;pressure_sealevel;temperature;humidity
9421;BME280;4749;51.398;5.466;2023-05-10T00:00:28;100694.72;;;14.81;100.00
9421;BME280;4749;51.398;5.466;2023-05-10T00:02:56;100684.97;;;14.83;100.00
9421;BME280;4749;51.398;5.466;2023-05-10T00:05:23;100685.84;;;14.84;100.00
9421;BME280;4749;51.398;5.466;2023-05-10T00:07:50;100678.75;;;14.86;100.00
9421;BME280;4749;51.398;5.466;2023-05-10T00:10:17;100689.34;;;14.86;100.00
9421;BME280;4749;51.398;5.466;2023-05-10T00:12:45;100685.78;;;14.87;100.00
9421;BME280;4749;51.398;5.466;2023-05-10T00:15:12;100687.56;;;14.86;100.00
9421;BME280;4749;51.398;5.466;2023-05-10T00:17:39;100684.91;;;14.86;100.00
9421;BME280;4749;51.398;5.466;2023-05-10T00:20:07;100689.38;;;14.84;100.00
9421;BME280;4749;51.398;5.466;2023-05-10T00:22:34;100689.38;;;14.84;100.00
9421;BME280;4749;51.398;5.466;2023-05-10T00:25:02;100687.66;;;14.82;100.00
9421;BME280;4749;51.398;5.466;2023-05-10T00:27:29;100689.44;;;14.81;100.00
9421;BME280;4749;51.398;5.466;2023-05-10T00:29:56;100685.03;;;14.80;100.00
9421;BME280;4749;51.398;5.466;2023-05-10T00:32:23;100690.31;;;14.82;100.00
9421;BME280;4749;51.398;5.466;2023-05-10T00:34:50;100685.00;;;14.82;100.00
9421;BME280;4749;51.398;5.466;2023-05-10T00:37:18;100682.38;;;14.82;100.00
9421;BME280;4749;51.398;5.466;2023-05-10T00:39:45;100688.53;;;14.82;100.00
9421;BME280;4749;51.398;5.466;2023-05-10T00:42:12;100681.53;;;14.80;100.00
9421;BME280;4749;51.398;5.466;2023-05-10T00:44:39;100685.91;;;14.79;100.00
9421;BME280;4749;51.398;5.466;2023-05-10T00:47:07;100676.22;;;14.78;100.00
9421;BME280;4749;51.398;5.466;2023-05-10T00:49:35;100686.81;;;14.80;100.00
9421;BME280;4749;51.398;5.466;2023-05-10T00:52:03;100681.50;;;14.81;100.00
9421;BME280;4749;51.398;5.466;2023-05-10T00:54:30;100681.50;;;14.81;100.00
9421;BME280;4749;51.398;5.466;2023-05-10T00:56:57;100681.50;;;14.81;100.00
9421;BME280;4749;51.398;5.466;2023-05-10T00:59:26;100683.25;;;14.79;100.00
9421;BME280;4749;51.398;5.466;2023-05-10T01:01:53;100685.97;;;14.76;100.00
9421;BME280;4749;51.398;5.466;2023-05-10T01:04:20;100677.13;;;14.77;100.00
9421;BME280;4749;51.398;5.466;2023-05-10T01:06:53;100676.25;;;14.77;100.00
9421;BME280;4749;51.398;5.466;2023-05-10T01:09:21;100679.81;;;14.76;100.00
9421;BME280;4749;51.398;5.466;2023-05-10T01:11:49;100677.16;;;14.76;100.00
9421;BME280;4749;51.398;5.466;2023-05-10T01:14:18;100681.56;;;14.77;100.00
9421;BME280;4749;51.398;5.466;2023-05-10T01:16:48;100680.69;;;14.76;100.00
9421;BME280;4749;51.398;5.466;2023-05-10T01:19:27;100679.78;;;14.77;100.00
9421;BME280;4749;51.398;5.466;2023-05-10T01:22:34;100677.13;;;14.77;100.00
9421;BME280;4749;51.398;5.466;2023-05-10T01:34:12;100676.31;;;14.74;100.00
9421;BME280;4749;51.398;5.466;2023-05-10T01:36:57;100672.78;;;14.75;100.00
9421;BME280;4749;51.398;5.466;2023-05-10T01:42:25;100677.16;;;14.76;100.00
9421;BME280;4749;51.398;5.466;2023-05-10T01:44:58;100673.69;;;14.74;100.00
9421;BME280;4749;51.398;5.466;2023-05-10T01:47:38;100674.59;;;14.73;100.00
9421;BME280;4749;51.398;5.466;2023-05-10T01:50:15;100676.34;;;14.71;100.00
9421;BME280;4749;51.398;5.466;2023-05-10T01:52:47;100677.38;;;14.63;100.00
9421;BME280;4749;51.398;5.466;2023-05-10T01:55:18;100674.00;;;14.54;100.00
9421;BME280;4749;51.398;5.466;2023-05-10T01:57:51;100676.75;;;14.48;100.00
9421;BME280;4749;51.398;5.466;2023-05-10T02:00:20;100674.16;;;14.46;100.00
9421;BME280;4749;51.398;5.466;2023-05-10T02:02:48;100677.66;;;14.44;100.00
9421;BME280;4749;51.398;5.466;2023-05-10T02:05:17;100669.84;;;14.36;100.00
9421;BME280;4749;51.398;5.466;2023-05-10T02:07:45;100672.56;;;14.31;100.00
9421;BME280;4749;51.398;5.466;2023-05-10T02:10:13;100672.63;;;14.27;100.00
9421;BME280;4749;51.398;5.466;2023-05-10T02:12:44;100677.91;;;14.27;100.00
9421;BME280;4749;51.398;5.466;2023-05-10T02:15:18;100679.66;;;14.28;100.00
9421;BME280;4749;51.398;5.466;2023-05-10T02:17:48;100692.88;;;14.28;100.00
9421;BME280;4749;51.398;5.466;2023-05-10T02:20:16;100687.53;;;14.32;100.00
9421;BME280;4749;51.398;5.466;2023-05-10T02:22:48;100690.13;;;14.35;100.00
9421;BME280;4749;51.398;5.466;2023-05-10T02:25:18;100690.97;;;14.37;100.00
9421;BME280;4749;51.398;5.466;2023-05-10T02:27:47;100704.19;;;14.39;100.00
9421;BME280;4749;51.398;5.466;2023-05-10T02:30:16;100697.97;;;14.42;100.00
9421;BME280;4749;51.398;5.466;2023-05-10T02:32:44;100700.63;;;14.42;100.00
9421;BME280;4749;51.398;5.466;2023-05-10T02:35:12;100705.03;;;14.41;100.00
9421;BME280;4749;51.398;5.466;2023-05-10T02:37:40;100705.03;;;14.41;100.00
9421;BME280;4749;51.398;5.466;2023-05-10T02:40:08;100711.22;;;14.40;100.00
9421;BME280;4749;51.398;5.466;2023-05-10T02:42:37;100709.50;;;14.36;100.00
9421;BME280;4749;51.398;5.466;2023-05-10T02:45:11;100705.13;;;14.35;100.00
9421;BME280;4749;51.398;5.466;2023-05-10T02:47:39;100706.88;;;14.34;100.00
9421;BME280;4749;51.398;5.466;2023-05-10T02:50:07;100703.31;;;14.37;100.00
9421;BME280;4749;51.398;5.466;2023-05-10T02:52:50;100698.13;;;14.32;100.00
9421;BME280;4749;51.398;5.466;2023-05-10T02:55:27;100701.66;;;14.31;100.00
9421;BME280;4749;51.398;5.466;2023-05-10T02:58:00;100711.38;;;14.28;100.00
9421;BME280;4749;51.398;5.466;2023-05-10T03:00:29;100711.41;;;14.29;100.00
9421;BME280;4749;51.398;5.466;2023-05-10T03:02:56;100706.09;;;14.28;100.00
9421;BME280;4749;51.398;5.466;2023-05-10T03:05:23;100709.69;;;14.24;100.00
9421;BME280;4749;51.398;5.466;2023-05-10T03:07:51;100705.25;;;14.26;100.00
9421;BME280;4749;51.398;5.466;2023-05-10T03:10:19;100710.41;;;14.35;100.00
9421;BME280;4749;51.398;5.466;2023-05-10T03:13:29;100706.84;;;14.39;100.00
9421;BME280;4749;51.398;5.466;2023-05-10T03:16:09;100705.97;;;14.37;100.00
9421;BME280;4749;51.398;5.466;2023-05-10T03:18:54;100708.59;;;14.37;100.00
9421;BME280;4749;51.398;5.466;2023-05-10T03:21:22;100706.84;;;14.39;100.00
9421;BME280;4749;51.398;5.466;2023-05-10T03:24:07;100704.19;;;14.39;100.00
9421;BME280;4749;51.398;5.466;2023-05-10T03:26:35;100706.91;;;14.33;100.00
9421;BME280;4749;51.398;5.466;2023-05-10T03:29:05;100712.16;;;14.36;100.00
9421;BME280;4749;51.398;5.466;2023-05-10T03:31:33;100718.28;;;14.40;100.00
9421;BME280;4749;51.398;5.466;2023-05-10T03:34:00;100720.03;;;14.41;100.00
9421;BME280;4749;51.398;5.466;2023-05-10T03:36:28;100719.19;;;14.37;100.00
9421;BME280;4749;51.398;5.466;2023-05-10T03:38:55;100720.97;;;14.36;100.00
9421;BME280;4749;51.398;5.466;2023-05-10T03:41:22;100728.00;;;14.37;100.00
9421;BME280;4749;51.398;5.466;2023-05-10T03:43:49;100728.00;;;14.37;100.00
9421;BME280;4749;51.398;5.466;2023-05-10T03:46:16;100730.63;;;14.37;100.00
9421;BME280;4749;51.398;5.466;2023-05-10T03:48:43;100728.00;;;14.36;100.00
9421;BME280;4749;51.398;5.466;2023-05-10T03:51:10;100732.41;;;14.37;100.00
9421;BME280;4749;51.398;5.466;2023-05-10T03:53:37;100736.81;;;14.38;100.00
9421;BME280;4749;51.398;5.466;2023-05-10T03:56:04;100729.78;;;14.35;100.00
9421;BME280;4749;51.398;5.466;2023-05-10T03:58:31;100734.22;;;14.35;100.00
9421;BME280;4749;51.398;5.466;2023-05-10T04:00:59;100732.47;;;14.34;100.00
9421;BME280;4749;51.398;5.466;2023-05-10T04:03:26;100736.84;;;14.35;100.00
9421;BME280;4749;51.398;5.466;2023-05-10T04:06:01;100735.06;;;14.35;100.00
9421;BME280;4749;51.398;5.466;2023-05-10T04:08:28;100733.28;;;14.39;100.00
9421;BME280;4749;51.398;5.466;2023-05-10T04:11:09;100742.97;;;14.37;100.00
9421;BME280;4749;51.398;5.466;2023-05-10T04:13:36;100742.19;;;14.32;100.00
9421;BME280;4749;51.398;5.466;2023-05-10T04:16:04;100749.28;;;14.30;100.00
9421;BME280;4749;51.398;5.466;2023-05-10T04:18:32;100744.00;;;14.30;100.00
9421;BME280;4749;51.398;5.466;2023-05-10T04:20:59;100742.25;;;14.27;100.00
9421;BME280;4749;51.398;5.466;2023-05-10T04:23:27;100736.06;;;14.28;100.00
9421;BME280;4749;51.398;5.466;2023-05-10T04:26:01;100746.63;;;14.30;100.00
9421;BME280;4749;51.398;5.466;2023-05-10T04:28:28;100749.25;;;14.31;100.00
9421;BME280;4749;51.398;5.466;2023-05-10T04:31:09;100737.81;;;14.31;100.00
9421;BME280;4749;51.398;5.466;2023-05-10T04:33:37;100745.69;;;14.34;100.00
9421;BME280;4749;51.398;5.466;2023-05-10T04:36:04;100745.66;;;14.35;100.00
9421;BME280;4749;51.398;5.466;2023-05-10T04:38:32;100747.38;;;14.40;100.00
9421;BME280;4749;51.398;5.466;2023-05-10T04:41:07;100742.91;;;14.43;100.00
9421;BME280;4749;51.398;5.466;2023-05-10T04:43:35;100736.72;;;14.46;100.00
9421;BME280;4749;51.398;5.466;2023-05-10T04:46:03;100749.00;;;14.51;100.00
9421;BME280;4749;51.398;5.466;2023-05-10T04:48:31;100745.44;;;14.52;100.00
9421;BME280;4749;51.398;5.466;2023-05-10T04:50:58;100741.03;;;14.53;100.00
9421;BME280;4749;51.398;5.466;2023-05-10T04:53:25;100748.06;;;14.54;100.00
9421;BME280;4749;51.398;5.466;2023-05-10T04:55:52;100757.75;;;14.56;100.00
9421;BME280;4749;51.398;5.466;2023-05-10T04:58:19;100752.44;;;14.56;100.00
9421;BME280;4749;51.398;5.466;2023-05-10T05:00:46;100756.88;;;14.56;100.00
9421;BME280;4749;51.398;5.466;2023-05-10T05:03:13;100753.28;;;14.58;100.00
9421;BME280;4749;51.398;5.466;2023-05-10T05:05:41;100750.56;;;14.64;100.00
9421;BME280;4749;51.398;5.466;2023-05-10T05:08:08;100759.25;;;14.73;100.00
9421;BME280;4749;51.398;5.466;2023-05-10T05:10:35;100758.28;;;14.80;100.00
9421;BME280;4749;51.398;5.466;2023-05-10T05:13:02;100754.56;;;14.90;100.00
9421;BME280;4749;51.398;5.466;2023-05-10T05:15:29;100768.38;;;15.09;100.00
9421;BME280;4749;51.398;5.466;2023-05-10T05:17:57;100763.69;;;15.25;100.00
9421;BME280;4749;51.398;5.466;2023-05-10T05:20:24;100762.63;;;15.33;100.00
9421;BME280;4749;51.398;5.466;2023-05-10T05:22:51;100766.25;;;15.28;100.00
9421;BME280;4749;51.398;5.466;2023-05-10T05:25:19;100768.09;;;15.24;100.00
9421;BME280;4749;51.398;5.466;2023-05-10T05:27:46;100767.19;;;15.25;100.00
9421;BME280;4749;51.398;5.466;2023-05-10T05:30:13;100774.16;;;15.29;100.00
9421;BME280;4749;51.398;5.466;2023-05-10T05:32:40;100777.59;;;15.36;100.00
9421;BME280;4749;51.398;5.466;2023-05-10T05:35:07;100771.31;;;15.41;100.00
9421;BME280;4749;51.398;5.466;2023-05-10T05:37:35;100773.94;;;15.43;100.00
9421;BME280;4749;51.398;5.466;2023-05-10T05:40:02;100781.81;;;15.46;100.00
9421;BME280;4749;51.398;5.466;2023-05-10T05:42:31;100780.81;;;15.53;100.00
9421;BME280;4749;51.398;5.466;2023-05-10T05:44:58;100785.19;;;15.54;100.00
9421;BME280;4749;51.398;5.466;2023-05-10T05:47:25;100781.63;;;15.55;100.00
9421;BME280;4749;51.398;5.466;2023-05-10T05:49:52;100782.53;;;15.54;100.00
9421;BME280;4749;51.398;5.466;2023-05-10T05:52:20;100784.50;;;15.44;100.00
9421;BME280;4749;51.398;5.466;2023-05-10T05:54:48;100785.59;;;15.33;100.00
9421;BME280;4749;51.398;5.466;2023-05-10T05:57:15;100791.03;;;15.25;100.00
9421;BME280;4749;51.398;5.466;2023-05-10T05:59:42;100792.88;;;15.20;100.00
9421;BME280;4749;51.398;5.466;2023-05-10T06:02:13;100789.34;;;15.19;100.00
9421;BME280;4749;51.398;5.466;2023-05-10T06:04:40;100790.94;;;15.30;100.00
9421;BME280;4749;51.398;5.466;2023-05-10T06:07:10;100796.84;;;15.45;100.00
9421;BME280;4749;51.398;5.466;2023-05-10T06:09:37;100802.94;;;15.51;100.00
9421;BME280;4749;51.398;5.466;2023-05-10T06:12:05;100798.34;;;15.60;100.00
9421;BME280;4749;51.398;5.466;2023-05-10T06:14:32;100807.19;;;15.61;100.00
9421;BME280;4749;51.398;5.466;2023-05-10T06:16:59;100821.34;;;15.58;100.00
9421;BME280;4749;51.398;5.466;2023-05-10T06:19:27;100812.50;;;15.61;100.00
9421;BME280;4749;51.398;5.466;2023-05-10T06:21:54;100813.34;;;15.64;100.00
9421;BME280;4749;51.398;5.466;2023-05-10T06:24:21;100818.66;;;15.60;100.00
9421;BME280;4749;51.398;5.466;2023-05-10T06:26:48;100817.78;;;15.61;100.00
9421;BME280;4749;51.398;5.466;2023-05-10T06:29:16;100816.84;;;15.65;100.00
9421;BME280;4749;51.398;5.466;2023-05-10T06:31:44;100822.00;;;15.72;100.00
9421;BME280;4749;51.398;5.466;2023-05-10T06:34:11;100829.81;;;15.79;100.00
9421;BME280;4749;51.398;5.466;2023-05-10T06:36:39;100820.84;;;15.86;100.00
9421;BME280;4749;51.398;5.466;2023-05-10T06:39:06;100824.16;;;15.97;100.00
9421;BME280;4749;51.398;5.466;2023-05-10T06:41:33;100826.53;;;16.11;100.00
9421;BME280;4749;51.398;5.466;2023-05-10T06:44:00;100834.94;;;16.31;100.00
9421;BME280;4749;51.398;5.466;2023-05-10T06:46:27;100824.88;;;16.47;100.00
9421;BME280;4749;51.398;5.466;2023-05-10T06:48:55;100828.00;;;16.67;100.00
9421;BME280;4749;51.398;5.466;2023-05-10T06:51:22;100827.00;;;16.74;100.00
9421;BME280;4749;51.398;5.466;2023-05-10T06:53:49;100829.31;;;16.88;100.00
9421;BME280;4749;51.398;5.466;2023-05-10T06:56:16;100832.56;;;17.01;100.00
9421;BME280;4749;51.398;5.466;2023-05-10T06:58:43;100832.25;;;17.13;100.00
9421;BME280;4749;51.398;5.466;2023-05-10T07:01:10;100831.78;;;17.31;100.00
9421;BME280;4749;51.398;5.466;2023-05-10T07:03:37;100833.84;;;17.20;100.00
9421;BME280;4749;51.398;5.466;2023-05-10T07:06:05;100825.97;;;17.17;100.00
9421;BME280;4749;51.398;5.466;2023-05-10T07:08:41;100839.28;;;17.14;100.00
9421;BME280;4749;51.398;5.466;2023-05-10T07:11:08;100840.91;;;17.21;100.00
9421;BME280;4749;51.398;5.466;2023-05-10T07:13:36;100841.25;;;17.43;100.00
9421;BME280;4749;51.398;5.466;2023-05-10T07:16:03;100838.38;;;17.51;100.00
9421;BME280;4749;51.398;5.466;2023-05-10T07:18:31;100848.31;;;17.44;100.00
9421;BME280;4749;51.398;5.466;2023-05-10T07:20:58;100853.13;;;17.28;100.00
9421;BME280;4749;51.398;5.466;2023-05-10T07:23:25;100855.41;;;17.06;100.00
9421;BME280;4749;51.398;5.466;2023-05-10T07:25:52;100856.69;;;16.92;100.00
9421;BME280;4749;51.398;5.466;2023-05-10T07:28:20;100859.47;;;16.85;100.00
9421;BME280;4749;51.398;5.466;2023-05-10T07:30:47;100862.03;;;16.90;100.00
9421;BME280;4749;51.398;5.466;2023-05-10T07:33:14;100856.28;;;17.08;100.00
9421;BME280;4749;51.398;5.466;2023-05-10T07:35:43;100856.69;;;17.27;100.00
9421;BME280;4749;51.398;5.466;2023-05-10T07:38:10;100857.06;;;17.48;100.00
9421;BME280;4749;51.398;5.466;2023-05-10T07:40:40;100860.34;;;17.59;100.00
9421;BME280;4749;51.398;5.466;2023-05-10T07:43:07;100855.84;;;17.61;100.00
9421;BME280;4749;51.398;5.466;2023-05-10T07:45:34;100862.91;;;17.62;100.00
9421;BME280;4749;51.398;5.466;2023-05-10T07:48:01;100861.16;;;17.61;100.00
9421;BME280;4749;51.398;5.466;2023-05-10T07:50:29;100867.34;;;17.61;100.00
9421;BME280;4749;51.398;5.466;2023-05-10T07:52:56;100879.41;;;17.40;100.00
9421;BME280;4749;51.398;5.466;2023-05-10T07:55:23;100881.78;;;17.15;100.00
9421;BME280;4749;51.398;5.466;2023-05-10T07:57:50;100886.81;;;16.89;100.00
9421;BME280;4749;51.398;5.466;2023-05-10T08:00:19;100882.72;;;16.74;100.00
9421;BME280;4749;51.398;5.466;2023-05-10T08:02:47;100885.47;;;16.70;100.00
9421;BME280;4749;51.398;5.466;2023-05-10T08:05:14;100890.78;;;16.70;100.00
9421;BME280;4749;51.398;5.466;2023-05-10T08:07:42;100890.78;;;16.68;100.00
9421;BME280;4749;51.398;5.466;2023-05-10T08:10:10;100900.63;;;16.63;100.00
9421;BME280;4749;51.398;5.466;2023-05-10T08:12:38;100902.50;;;16.58;100.00
9421;BME280;4749;51.398;5.466;2023-05-10T08:15:06;100906.16;;;16.52;100.00
9421;BME280;4749;51.398;5.466;2023-05-10T08:17:33;100908.75;;;16.55;100.00
9421;BME280;4749;51.398;5.466;2023-05-10T08:20:01;100918.31;;;16.63;100.00
9421;BME280;4749;51.398;5.466;2023-05-10T08:22:28;100919.25;;;16.61;100.00
9421;BME280;4749;51.398;5.466;2023-05-10T08:24:55;100917.44;;;16.62;100.00
9421;BME280;4749;51.398;5.466;2023-05-10T08:27:22;100923.59;;;16.64;100.00
9421;BME280;4749;51.398;5.466;2023-05-10T08:29:49;100931.50;;;16.69;100.00
9421;BME280;4749;51.398;5.466;2023-05-10T08:32:17;100927.88;;;16.73;100.00
9421;BME280;4749;51.398;5.466;2023-05-10T08:34:44;100924.84;;;16.89;100.00
9421;BME280;4749;51.398;5.466;2023-05-10T08:37:12;100921.50;;;17.20;100.00
9421;BME280;4749;51.398;5.466;2023-05-10T08:39:40;100917.22;;;17.52;100.00
9421;BME280;4749;51.398;5.466;2023-05-10T08:42:08;100919.03;;;17.85;100.00
9421;BME280;4749;51.398;5.466;2023-05-10T08:44:36;100919.94;;;18.18;100.00
9421;BME280;4749;51.398;5.466;2023-05-10T08:47:07;100924.69;;;18.38;100.00
9421;BME280;4749;51.398;5.466;2023-05-10T08:49:37;100922.03;;;18.38;100.00
9421;BME280;4749;51.398;5.466;2023-05-10T08:52:04;100927.72;;;18.26;100.00
9421;BME280;4749;51.398;5.466;2023-05-10T08:54:33;100934.31;;;18.11;100.00
9421;BME280;4749;51.398;5.466;2023-05-10T08:57:02;100933.41;;;18.12;100.00
9421;BME280;4749;51.398;5.466;2023-05-10T08:59:30;100936.63;;;18.23;100.00
9421;BME280;4749;51.398;5.466;2023-05-10T09:01:58;100936.25;;;18.37;100.00
9421;BME280;4749;51.398;5.466;2023-05-10T09:04:26;100932.69;;;18.38;100.00
9421;BME280;4749;51.398;5.466;2023-05-10T09:06:56;100937.91;;;18.41;100.00
9421;BME280;4749;51.398;5.466;2023-05-10T09:09:24;100936.88;;;18.47;100.00
9421;BME280;4749;51.398;5.466;2023-05-10T09:11:52;100944.78;;;18.50;100.00
9421;BME280;4749;51.398;5.466;2023-05-10T09:14:20;100941.53;;;18.71;100.00
9421;BME280;4749;51.398;5.466;2023-05-10T09:16:47;100947.56;;;19.06;100.00
9421;BME280;4749;51.398;5.466;2023-05-10T09:19:14;100941.66;;;19.26;100.00
9421;BME280;4749;51.398;5.466;2023-05-10T09:21:42;100941.63;;;19.54;100.00
9421;BME280;4749;51.398;5.466;2023-05-10T09:24:09;100947.84;;;19.81;100.00
9421;BME280;4749;51.398;5.466;2023-05-10T09:26:47;100950.44;;;20.09;100.00
9421;BME280;4749;51.398;5.466;2023-05-10T09:29:15;100953.97;;;20.09;100.00
9421;BME280;4749;51.398;5.466;2023-05-10T09:31:51;100947.13;;;19.76;100.00
9421;BME280;4749;51.398;5.466;2023-05-10T09:34:30;100950.22;;;19.35;100.00
9421;BME280;4749;51.398;5.466;2023-05-10T09:37:00;100946.72;;;19.05;100.00
9421;BME280;4749;51.398;5.466;2023-05-10T09:39:36;100950.41;;;19.01;100.00
9421;BME280;4749;51.398;5.466;2023-05-10T09:42:10;100944.91;;;19.06;100.00
9421;BME280;4749;51.398;5.466;2023-05-10T09:44:37;100951.34;;;18.99;100.00
9421;BME280;4749;51.398;5.466;2023-05-10T09:47:05;100957.09;;;18.85;100.00
9421;BME280;4749;51.398;5.466;2023-05-10T09:49:32;100958.25;;;18.75;100.00
9421;BME280;4749;51.398;5.466;2023-05-10T09:52:05;100959.28;;;18.71;100.00
9421;BME280;4749;51.398;5.466;2023-05-10T09:54:33;100956.31;;;18.81;100.00
9421;BME280;4749;51.398;5.466;2023-05-10T09:57:01;100960.66;;;19.13;100.00
9421;BME280;4749;51.398;5.466;2023-05-10T09:59:29;100959.97;;;19.64;100.00
9421;BME280;4749;51.398;5.466;2023-05-10T10:01:58;100965.16;;;20.20;100.00
9421;BME280;4749;51.398;5.466;2023-05-10T10:04:27;100961.19;;;20.57;100.00
9421;BME280;4749;51.398;5.466;2023-05-10T10:07:04;100966.91;;;20.71;100.00
9421;BME280;4749;51.398;5.466;2023-05-10T10:09:33;100960.84;;;20.66;100.00
9421;BME280;4749;51.398;5.466;2023-05-10T10:12:01;100967.03;;;20.68;100.00
9421;BME280;4749;51.398;5.466;2023-05-10T10:14:29;100967.16;;;20.89;100.00
9421;BME280;4749;51.398;5.466;2023-05-10T10:16:57;100966.28;;;21.12;100.00
9421;BME280;4749;51.398;5.466;2023-05-10T10:19:36;100959.28;;;21.31;100.00
9421;BME280;4749;51.398;5.466;2023-05-10T10:22:04;100957.97;;;21.41;100.00
9421;BME280;4749;51.398;5.466;2023-05-10T10:24:32;100960.66;;;21.41;100.00
9421;BME280;4749;51.398;5.466;2023-05-10T10:27:19;100959.84;;;21.39;100.00
9421;BME280;4749;51.398;5.466;2023-05-10T10:30:13;100971.25;;;21.21;100.00
9421;BME280;4749;51.398;5.466;2023-05-10T10:35:44;100967.66;;;21.22;100.00
9421;BME280;4749;51.398;5.466;2023-05-10T10:38:13;100963.16;;;21.46;100.00
9421;BME280;4749;51.398;5.466;2023-05-10T10:40:40;100965.44;;;21.55;100.00
9421;BME280;4749;51.398;5.466;2023-05-10T10:43:28;100967.88;;;21.39;100.00
9421;BME280;4749;51.398;5.466;2023-05-10T10:46:25;100959.63;;;20.98;100.00
9421;BME280;4749;51.398;5.466;2023-05-10T10:49:10;100966.78;;;20.74;100.00
9421;BME280;4749;51.398;5.466;2023-05-10T10:51:38;100966.56;;;20.80;100.00
9421;BME280;4749;51.398;5.466;2023-05-10T10:54:10;100970.63;;;20.91;100.00
9421;BME280;4749;51.398;5.466;2023-05-10T10:56:38;100974.97;;;20.93;100.00
9421;BME280;4749;51.398;5.466;2023-05-10T10:59:05;100974.72;;;20.77;100.00
9421;BME280;4749;51.398;5.466;2023-05-10T11:01:35;100975.34;;;20.61;100.00
9421;BME280;4749;51.398;5.466;2023-05-10T11:06:35;100966.03;;;20.21;100.00
9421;BME280;4749;51.398;5.466;2023-05-10T11:09:08;100968.38;;;20.05;100.00
9421;BME280;4749;51.398;5.466;2023-05-10T11:11:43;100973.09;;;19.97;100.00
9421;BME280;4749;51.398;5.466;2023-05-10T11:14:21;100962.53;;;19.94;100.00
9421;BME280;4749;51.398;5.466;2023-05-10T11:16:51;100966.69;;;20.03;100.00
9421;BME280;4749;51.398;5.466;2023-05-10T11:19:18;100967.97;;;20.16;100.00
9421;BME280;4749;51.398;5.466;2023-05-10T11:24:31;100978.63;;;20.44;100.00
9421;BME280;4749;51.398;5.466;2023-05-10T11:27:00;100984.63;;;20.49;100.00
9421;BME280;4749;51.398;5.466;2023-05-10T11:29:27;100974.69;;;20.54;100.00
9421;BME280;4749;51.398;5.466;2023-05-10T11:31:58;100981.13;;;20.72;100.00
9421;BME280;4749;51.398;5.466;2023-05-10T11:34:28;100975.50;;;21.03;100.00
9421;BME280;4749;51.398;5.466;2023-05-10T11:37:02;100980.75;;;21.51;100.00
9421;BME280;4749;51.398;5.466;2023-05-10T11:39:31;100990.69;;;21.91;100.00
9421;BME280;4749;51.398;5.466;2023-05-10T11:41:59;100983.03;;;22.25;100.00
9421;BME280;4749;51.398;5.466;2023-05-10T11:44:30;100991.44;;;22.37;100.00
9421;BME280;4749;51.398;5.466;2023-05-10T11:47:01;100991.03;;;22.46;100.00
9421;BME280;4749;51.398;5.466;2023-05-10T11:52:08;100980.41;;;22.64;100.00
9421;BME280;4749;51.398;5.466;2023-05-10T11:54:37;100988.75;;;22.76;100.00
9421;BME280;4749;51.398;5.466;2023-05-10T11:57:04;100988.88;;;22.94;100.00
9421;BME280;4749;51.398;5.466;2023-05-10T11:59:31;100991.94;;;23.05;100.00
9421;BME280;4749;51.398;5.466;2023-05-10T12:01:59;100997.59;;;23.18;100.00
9421;BME280;4749;51.398;5.466;2023-05-10T12:04:26;100993.09;;;23.37;100.00
9421;BME280;4749;51.398;5.466;2023-05-10T12:06:56;100995.25;;;23.67;100.00
9421;BME280;4749;51.398;5.466;2023-05-10T12:09:23;100993.09;;;23.92;100.00
9421;BME280;4749;51.398;5.466;2023-05-10T12:12:09;101000.06;;;24.13;100.00
9421;BME280;4749;51.398;5.466;2023-05-10T12:14:37;101006.34;;;24.30;100.00
9421;BME280;4749;51.398;5.466;2023-05-10T12:17:04;101007.28;;;24.48;100.00
9421;BME280;4749;51.398;5.466;2023-05-10T12:19:38;101009.75;;;24.68;100.00
9421;BME280;4749;51.398;5.466;2023-05-10T12:22:06;101010.00;;;24.81;100.00
9421;BME280;4749;51.398;5.466;2023-05-10T12:24:37;101013.22;;;24.70;100.00
9421;BME280;4749;51.398;5.466;2023-05-10T12:27:07;101014.22;;;24.52;100.00
9421;BME280;4749;51.398;5.466;2023-05-10T12:29:35;101018.41;;;24.23;100.00
9421;BME280;4749;51.398;5.466;2023-05-10T12:32:02;101014.25;;;23.81;100.00
9421;BME280;4749;51.398;5.466;2023-05-10T12:34:36;101010.56;;;23.46;100.00
9421;BME280;4749;51.398;5.466;2023-05-10T12:37:08;101016.38;;;23.18;100.00
9421;BME280;4749;51.398;5.466;2023-05-10T12:39:43;101006.44;;;23.01;100.00
9421;BME280;4749;51.398;5.466;2023-05-10T12:42:11;101008.94;;;22.85;100.00
9421;BME280;4749;51.398;5.466;2023-05-10T12:44:39;101011.41;;;22.69;100.00
9421;BME280;4749;51.398;5.466;2023-05-10T12:47:07;101012.03;;;22.35;100.00
9421;BME280;4749;51.398;5.466;2023-05-10T12:49:34;101010.84;;;22.00;100.00
9421;BME280;4749;51.398;5.466;2023-05-10T12:52:01;101010.91;;;21.77;100.00
9421;BME280;4749;51.398;5.466;2023-05-10T12:54:29;101008.31;;;21.53;100.00
9421;BME280;4749;51.398;5.466;2023-05-10T12:56:56;101010.81;;;21.34;100.00
9421;BME280;4749;51.398;5.466;2023-05-10T12:59:24;101018.28;;;21.03;100.00
9421;BME280;4749;51.398;5.466;2023-05-10T13:01:51;101024.75;;;20.72;100.00
9421;BME280;4749;51.398;5.466;2023-05-10T13:04:19;101021.69;;;20.58;100.00
9421;BME280;4749;51.398;5.466;2023-05-10T13:06:46;101017.63;;;20.48;100.00
9421;BME280;4749;51.398;5.466;2023-05-10T13:09:13;101022.31;;;20.40;100.00
9421;BME280;4749;51.398;5.466;2023-05-10T13:11:41;101019.31;;;20.24;100.00
9421;BME280;4749;51.398;5.466;2023-05-10T13:14:08;101024.28;;;20.08;100.00
9421;BME280;4749;51.398;5.466;2023-05-10T13:16:35;101017.44;;;20.01;100.00
9421;BME280;4749;51.398;5.466;2023-05-10T13:19:02;101023.97;;;19.91;100.00
9421;BME280;4749;51.398;5.466;2023-05-10T13:21:29;101024.41;;;19.79;100.00
9421;BME280;4749;51.398;5.466;2023-05-10T13:23:57;101025.75;;;19.64;100.00
9421;BME280;4749;51.398;5.466;2023-05-10T13:26:24;101028.94;;;19.47;100.00
9421;BME280;4749;51.398;5.466;2023-05-10T13:28:52;101027.81;;;19.25;100.00
9421;BME280;4749;51.398;5.466;2023-05-10T13:31:19;101021.41;;;19.02;100.00
9421;BME280;4749;51.398;5.466;2023-05-10T13:33:47;101021.97;;;18.82;100.00